Time;durP1;ratioP1;P1;durP2;ratioP2;P2;SDS_P1;SDS_P2;PMS_P1;PMS_P2;Temp;Humidity;BMP_temperature;BMP_pressure;BME280_temperature;BME280_humidity;BME280_pressure;Samples;Min_cycle;Max_cycle;Signal;HPM_P1;HPM_P2
2021/12/22 00:00:34;;;;;;;97.95;43.05;;;;;;;;;;5074012;28;20063;-77
2021/12/22 00:03:00;;;;;;;79.97;39.70;;;;;;;;;;5073835;28;20020;-78
2021/12/22 00:05:27;;;;;;;96.55;47.80;;;;;;;;;;5073861;28;20489;-78
2021/12/22 00:07:53;;;;;;;145.15;70.97;;;;;;;;;;5075026;28;20047;-77
2021/12/22 00:10:19;;;;;;;205.85;89.35;;;;;;;;;;5073357;28;20098;-77
2021/12/22 00:12:45;;;;;;;179.05;83.43;;;;;;;;;;5073805;28;20990;-77
2021/12/22 00:15:11;;;;;;;216.70;99.45;;;;;;;;;;5075497;28;20032;-77
2021/12/22 00:17:36;;;;;;;254.65;118.10;;;;;;;;;;5073656;28;20119;-77
2021/12/22 00:20:02;;;;;;;300.42;131.75;;;;;;;;;;5073704;28;20026;-79
2021/12/22 00:22:28;;;;;;;174.05;78.60;;;;;;;;;;5073952;28;20012;-78
2021/12/22 00:24:53;;;;;;;150.77;68.82;;;;;;;;;;5073719;28;20524;-78
2021/12/22 00:27:19;;;;;;;159.77;76.35;;;;;;;;;;5074247;28;20439;-77
2021/12/22 00:29:48;;;;;;;214.55;93.50;;;;;;;;;;5073223;28;20020;-79
2021/12/22 00:32:15;;;;;;;177.93;79.68;;;;;;;;;;5076460;28;20020;-78
2021/12/22 00:34:49;;;;;;;124.45;54.60;;;;;;;;;;5077841;28;20030;-77
2021/12/22 00:37:16;;;;;;;121.90;55.28;;;;;;;;;;5077854;28;20080;-77
2021/12/22 00:39:41;;;;;;;120.80;53.88;;;;;;;;;;5077397;28;20435;-78
2021/12/22 00:42:07;;;;;;;133.52;61.72;;;;;;;;;;5077552;28;20082;-78
2021/12/22 00:44:32;;;;;;;114.97;53.83;;;;;;;;;;5077110;28;20020;-78
2021/12/22 00:46:57;;;;;;;108.65;51.35;;;;;;;;;;5077409;28;20081;-78
2021/12/22 00:49:26;;;;;;;129.10;58.63;;;;;;;;;;5080241;28;20023;-78
2021/12/22 00:51:51;;;;;;;139.80;65.50;;;;;;;;;;5080459;28;20028;-77
2021/12/22 00:54:19;;;;;;;122.25;57.47;;;;;;;;;;5081770;28;20040;-78
2021/12/22 00:57:00;;;;;;;;;;;;;;;;;;;;;
2021/12/22 01:02:38;;;;;;;102.53;47.53;;;;;;;;;;5061607;28;20027;-76
2021/12/22 01:05:04;;;;;;;95.90;44.08;;;;;;;;;;5076700;28;20024;-78
2021/12/22 01:07:29;;;;;;;66.78;36.35;;;;;;;;;;5077293;28;20016;-77
2021/12/22 01:09:55;;;;;;;74.80;35.72;;;;;;;;;;5077992;28;20429;-78
2021/12/22 01:12:20;;;;;;;55.17;27.63;;;;;;;;;;5078331;28;20106;-79
2021/12/22 01:14:46;;;;;;;61.60;31.38;;;;;;;;;;5078992;28;20027;-76
2021/12/22 01:17:14;;;;;;;57.55;29.55;;;;;;;;;;5078886;28;20024;-79
2021/12/22 01:20:07;;;;;;;141.32;62.58;;;;;;;;;;5076789;28;20512;-78
2021/12/22 01:22:37;;;;;;;118.97;52.08;;;;;;;;;;5078065;28;20035;-78
2021/12/22 01:25:04;;;;;;;115.95;52.50;;;;;;;;;;5076941;28;20024;-77
2021/12/22 01:27:34;;;;;;;74.60;34.63;;;;;;;;;;5076216;28;20020;-78
2021/12/22 01:30:02;;;;;;;159.82;70.32;;;;;;;;;;5076508;28;20489;-78
2021/12/22 01:32:27;;;;;;;145.23;59.05;;;;;;;;;;5076513;28;20016;-79
2021/12/22 01:34:52;;;;;;;165.82;67.43;;;;;;;;;;5077731;28;20082;-77
2021/12/22 01:37:18;;;;;;;162.75;68.88;;;;;;;;;;5077613;28;20439;-77
2021/12/22 01:39:43;;;;;;;154.25;73.03;;;;;;;;;;5076201;28;20020;-77
2021/12/22 01:42:09;;;;;;;334.80;156.52;;;;;;;;;;5075572;28;20016;-77
2021/12/22 01:50:09;;;;;;;171.13;78.38;;;;;;;;;;5077875;28;20062;-78
2021/12/22 01:52:34;;;;;;;169.15;71.78;;;;;;;;;;5076422;28;20024;-78
2021/12/22 01:55:06;;;;;;;128.45;62.00;;;;;;;;;;5076104;28;20020;-78
2021/12/22 01:57:33;;;;;;;96.90;48.13;;;;;;;;;;5076122;28;20070;-78
2021/12/22 02:00:01;;;;;;;109.85;52.40;;;;;;;;;;5077734;28;20028;-77
2021/12/22 02:02:28;;;;;;;104.45;45.70;;;;;;;;;;5076835;28;20020;-77
2021/12/22 02:04:53;;;;;;;96.63;45.85;;;;;;;;;;5082014;28;20093;-77
2021/12/22 02:07:19;;;;;;;68.60;31.13;;;;;;;;;;5078886;28;20455;-77
2021/12/22 02:10:06;;;;;;;95.78;44.03;;;;;;;;;;5075204;28;20055;-78
2021/12/22 02:12:37;;;;;;;78.60;36.58;;;;;;;;;;5075728;28;20024;-77
2021/12/22 02:15:06;;;;;;;184.13;80.88;;;;;;;;;;5075747;28;20027;-78
2021/12/22 02:17:31;;;;;;;124.90;55.57;;;;;;;;;;5075827;28;20028;-79
2021/12/22 02:19:57;;;;;;;127.03;54.63;;;;;;;;;;5075410;28;20255;-78
2021/12/22 02:22:24;;;;;;;103.18;48.88;;;;;;;;;;5076532;28;20093;-78
2021/12/22 02:24:53;;;;;;;142.05;62.75;;;;;;;;;;5075611;28;20020;-76
2021/12/22 02:27:34;;;;;;;117.88;51.40;;;;;;;;;;5075834;28;20020;-77
2021/12/22 02:30:03;;;;;;;85.82;39.78;;;;;;;;;;5074992;28;20035;-79
2021/12/22 02:35:02;;;;;;;190.45;67.95;;;;;;;;;;5076664;28;20107;-77
2021/12/22 02:37:29;;;;;;;109.72;43.83;;;;;;;;;;5074827;28;20015;-77
2021/12/22 02:40:00;;;;;;;96.90;41.55;;;;;;;;;;5077629;28;20435;-77
2021/12/22 02:42:31;;;;;;;139.02;59.53;;;;;;;;;;5076589;28;20023;-78
2021/12/22 02:44:56;;;;;;;158.73;64.95;;;;;;;;;;5077411;28;20020;-78
2021/12/22 02:47:23;;;;;;;101.20;48.85;;;;;;;;;;5075264;28;20023;-78
2021/12/22 02:49:48;;;;;;;82.05;36.90;;;;;;;;;;5075077;28;20024;-77
2021/12/22 02:52:15;;;;;;;134.70;57.20;;;;;;;;;;5077013;28;20024;-77
2021/12/22 02:54:45;;;;;;;155.60;69.47;;;;;;;;;;5074207;28;20068;-77
2021/12/22 02:57:33;;;;;;;233.40;93.90;;;;;;;;;;5076243;28;20029;-78
2021/12/22 03:04:58;;;;;;;159.40;75.03;;;;;;;;;;5076475;28;20028;-77
2021/12/22 03:07:28;;;;;;;133.48;64.10;;;;;;;;;;5074855;28;20016;-78
2021/12/22 03:10:01;;;;;;;101.10;41.47;;;;;;;;;;5074204;28;20379;-77
2021/12/22 03:12:28;;;;;;;96.75;41.08;;;;;;;;;;5074542;28;20028;-77
2021/12/22 03:14:53;;;;;;;83.18;39.15;;;;;;;;;;5075081;28;20024;-77
2021/12/22 03:17:18;;;;;;;77.00;35.05;;;;;;;;;;5076828;28;20514;-78
2021/12/22 03:19:44;;;;;;;118.10;52.78;;;;;;;;;;5073977;28;20059;-77
2021/12/22 03:22:11;;;;;;;76.50;33.88;;;;;;;;;;5074387;28;20039;-78
2021/12/22 03:24:38;;;;;;;56.03;26.52;;;;;;;;;;5074305;28;20096;-78
2021/12/22 03:27:04;;;;;;;57.80;27.45;;;;;;;;;;5073987;28;20020;-77
2021/12/22 03:29:30;;;;;;;79.18;38.42;;;;;;;;;;5074586;28;20024;-77
2021/12/22 03:31:56;;;;;;;100.95;48.00;;;;;;;;;;5074183;28;20072;-78
2021/12/22 03:34:21;;;;;;;113.35;55.28;;;;;;;;;;5073856;28;20381;-77
2021/12/22 03:36:47;;;;;;;110.03;49.35;;;;;;;;;;5074007;28;20027;-77
2021/12/22 03:39:13;;;;;;;127.45;53.85;;;;;;;;;;5076379;28;20130;-77
2021/12/22 03:41:39;;;;;;;106.93;43.67;;;;;;;;;;5073923;28;20103;-78
2021/12/22 03:44:05;;;;;;;161.52;61.05;;;;;;;;;;5075660;28;20118;-78
2021/12/22 03:46:30;;;;;;;175.88;65.65;;;;;;;;;;5073989;28;20026;-77
2021/12/22 03:48:56;;;;;;;133.25;52.85;;;;;;;;;;5074169;28;20052;-77
2021/12/22 03:51:21;;;;;;;104.55;45.78;;;;;;;;;;5076120;28;20024;-79
2021/12/22 03:53:47;;;;;;;92.88;41.05;;;;;;;;;;5075620;28;20023;-78
2021/12/22 03:56:12;;;;;;;102.00;45.20;;;;;;;;;;5075219;28;20020;-78
2021/12/22 03:58:37;;;;;;;128.93;57.95;;;;;;;;;;5075253;28;20024;-78
2021/12/22 04:01:04;;;;;;;107.18;46.33;;;;;;;;;;5074798;28;20026;-78
2021/12/22 04:03:33;;;;;;;105.80;48.35;;;;;;;;;;5074066;28;20096;-77
2021/12/22 04:05:58;;;;;;;78.20;36.88;;;;;;;;;;5074086;28;20024;-77
2021/12/22 04:08:23;;;;;;;63.67;28.65;;;;;;;;;;5075006;28;20378;-78
2021/12/22 04:10:49;;;;;;;53.55;24.63;;;;;;;;;;5074498;28;20115;-78
2021/12/22 04:13:15;;;;;;;42.55;18.92;;;;;;;;;;5073589;28;20026;-78
2021/12/22 04:15:41;;;;;;;41.28;19.77;;;;;;;;;;5073654;28;20016;-77
2021/12/22 04:18:06;;;;;;;52.38;26.88;;;;;;;;;;5074614;28;20027;-78
2021/12/22 04:20:31;;;;;;;58.97;28.25;;;;;;;;;;5071778;28;20034;-79
2021/12/22 04:22:57;;;;;;;55.42;29.60;;;;;;;;;;5072744;28;20024;-79
2021/12/22 04:25:23;;;;;;;77.13;34.72;;;;;;;;;;5074193;28;20107;-78
2021/12/22 04:27:55;;;;;;;80.88;41.50;;;;;;;;;;5071741;28;20020;-79
2021/12/22 04:30:20;;;;;;;65.85;34.00;;;;;;;;;;5071585;28;20782;-78
2021/12/22 04:32:45;;;;;;;61.00;32.95;;;;;;;;;;5073546;28;20387;-78
2021/12/22 04:35:11;;;;;;;88.38;41.63;;;;;;;;;;5071609;28;20020;-78
2021/12/22 04:37:36;;;;;;;89.72;41.75;;;;;;;;;;5071658;28;20024;-78
2021/12/22 04:40:02;;;;;;;97.40;47.28;;;;;;;;;;5073725;28;20020;-78
2021/12/22 04:42:28;;;;;;;95.30;43.80;;;;;;;;;;5073309;28;20059;-78
2021/12/22 04:44:56;;;;;;;88.45;40.80;;;;;;;;;;5075352;28;20031;-77
2021/12/22 04:47:21;;;;;;;71.95;36.83;;;;;;;;;;5073235;28;20016;-78
2021/12/22 04:49:47;;;;;;;75.05;37.20;;;;;;;;;;5074626;28;20095;-78
2021/12/22 04:52:18;;;;;;;110.70;52.78;;;;;;;;;;5073704;28;20021;-78
2021/12/22 04:54:49;;;;;;;134.20;72.35;;;;;;;;;;5074672;28;20023;-78
2021/12/22 04:57:14;;;;;;;133.98;74.30;;;;;;;;;;5075218;28;20016;-77
2021/12/22 04:59:39;;;;;;;111.97;57.28;;;;;;;;;;5074844;28;20027;-78
2021/12/22 05:02:05;;;;;;;126.13;56.65;;;;;;;;;;5073055;28;20109;-78
2021/12/22 05:04:30;;;;;;;132.30;59.35;;;;;;;;;;5072818;28;20077;-77
2021/12/22 05:06:56;;;;;;;175.90;86.78;;;;;;;;;;5073095;28;20344;-77
2021/12/22 05:09:22;;;;;;;141.98;71.38;;;;;;;;;;5073285;28;20019;-78
2021/12/22 05:11:48;;;;;;;153.10;76.13;;;;;;;;;;5072569;28;20024;-78
2021/12/22 05:14:13;;;;;;;137.98;63.80;;;;;;;;;;5072943;28;20039;-77
2021/12/22 05:16:45;;;;;;;224.65;98.72;;;;;;;;;;5073028;28;20020;-77
2021/12/22 05:19:14;;;;;;;157.80;68.50;;;;;;;;;;5077735;28;20012;-78
2021/12/22 05:21:39;;;;;;;124.83;54.83;;;;;;;;;;5077131;28;20019;-78
2021/12/22 05:24:05;;;;;;;143.80;66.00;;;;;;;;;;5076239;28;20369;-78
2021/12/22 05:26:30;;;;;;;117.72;55.95;;;;;;;;;;5076872;28;20028;-78
2021/12/22 05:28:56;;;;;;;125.47;60.17;;;;;;;;;;5076132;28;20020;-76
2021/12/22 05:31:22;;;;;;;172.90;83.55;;;;;;;;;;5076329;28;20357;-77
2021/12/22 05:33:48;;;;;;;225.10;109.05;;;;;;;;;;5077077;28;20447;-79
2021/12/22 05:36:13;;;;;;;207.07;98.68;;;;;;;;;;5077687;28;20031;-79
2021/12/22 05:38:39;;;;;;;225.32;102.28;;;;;;;;;;5076011;28;20027;-78
2021/12/22 05:41:04;;;;;;;206.93;94.85;;;;;;;;;;5076381;28;20137;-78
2021/12/22 05:43:29;;;;;;;179.18;89.95;;;;;;;;;;5076563;28;20012;-78
2021/12/22 05:45:55;;;;;;;179.20;91.25;;;;;;;;;;5075679;28;20819;-78
2021/12/22 05:48:21;;;;;;;175.38;84.82;;;;;;;;;;5076290;28;20078;-79
2021/12/22 05:50:50;;;;;;;141.45;66.18;;;;;;;;;;5076827;28;20024;-78
2021/12/22 05:53:16;;;;;;;83.45;39.65;;;;;;;;;;5077096;28;20028;-77
2021/12/22 05:55:41;;;;;;;120.68;59.25;;;;;;;;;;5075366;28;20085;-79
2021/12/22 05:58:06;;;;;;;125.57;57.95;;;;;;;;;;5076729;28;20024;-79
2021/12/22 06:00:32;;;;;;;123.72;57.47;;;;;;;;;;5074624;28;20827;-79
2021/12/22 06:02:57;;;;;;;170.57;81.55;;;;;;;;;;5076682;28;20019;-79
2021/12/22 06:05:22;;;;;;;171.68;77.95;;;;;;;;;;5074948;28;20024;-79
2021/12/22 06:07:48;;;;;;;115.28;56.00;;;;;;;;;;5075188;28;20110;-77
2021/12/22 06:10:13;;;;;;;106.05;50.15;;;;;;;;;;5076450;28;20487;-79
2021/12/22 06:12:39;;;;;;;137.55;59.55;;;;;;;;;;5077091;28;20016;-79
2021/12/22 06:15:05;;;;;;;118.57;51.40;;;;;;;;;;5076993;28;20580;-78
2021/12/22 06:17:30;;;;;;;94.60;42.80;;;;;;;;;;5075641;28;20020;-79
2021/12/22 06:19:55;;;;;;;102.18;45.67;;;;;;;;;;5075812;28;20466;-79
2021/12/22 06:22:21;;;;;;;172.40;87.63;;;;;;;;;;5075548;28;20113;-79
2021/12/22 06:24:47;;;;;;;149.35;67.22;;;;;;;;;;5075892;28;20032;-77
2021/12/22 06:27:12;;;;;;;196.75;87.30;;;;;;;;;;5076073;28;20017;-78
2021/12/22 06:29:37;;;;;;;205.13;91.45;;;;;;;;;;5076455;28;20095;-78
2021/12/22 06:32:03;;;;;;;205.95;99.03;;;;;;;;;;5077174;28;20020;-77
2021/12/22 06:34:28;;;;;;;283.65;126.63;;;;;;;;;;5074909;28;20016;-77
2021/12/22 06:37:35;;;;;;;142.40;69.32;;;;;;;;;;5134727;27;20314;-77
2021/12/22 06:40:01;;;;;;;139.43;74.60;;;;;;;;;;5112942;28;20532;-78
2021/12/22 06:42:26;;;;;;;125.72;60.83;;;;;;;;;;5094526;28;20020;-77
2021/12/22 06:44:51;;;;;;;97.25;46.00;;;;;;;;;;5095858;28;20412;-77
2021/12/22 06:47:17;;;;;;;95.28;44.25;;;;;;;;;;5094781;28;20043;-77
2021/12/22 06:49:42;;;;;;;195.85;79.38;;;;;;;;;;5094255;28;20045;-77
2021/12/22 06:52:09;;;;;;;136.02;63.15;;;;;;;;;;5095226;28;20023;-76
2021/12/22 06:54:34;;;;;;;139.13;67.25;;;;;;;;;;5112738;28;20106;-77
2021/12/22 06:57:00;;;;;;;193.20;88.35;;;;;;;;;;5093922;28;20114;-76
2021/12/22 06:59:25;;;;;;;192.05;90.03;;;;;;;;;;5112932;27;20428;-76
2021/12/22 07:01:51;;;;;;;140.77;64.28;;;;;;;;;;5094319;28;20019;-77
2021/12/22 07:04:19;;;;;;;88.50;42.33;;;;;;;;;;5094366;28;20019;-78
2021/12/22 07:06:45;;;;;;;104.60;49.45;;;;;;;;;;5112666;28;20027;-75
2021/12/22 07:09:10;;;;;;;90.45;40.97;;;;;;;;;;5094262;28;20030;-76
2021/12/22 07:11:37;;;;;;;113.55;50.92;;;;;;;;;;5094066;28;20486;-77
2021/12/22 07:14:03;;;;;;;98.38;48.25;;;;;;;;;;5094110;28;20019;-77
2021/12/22 07:16:28;;;;;;;72.15;32.95;;;;;;;;;;5092094;28;20020;-77
2021/12/22 07:18:54;;;;;;;61.17;31.40;;;;;;;;;;5111363;28;20031;-77
2021/12/22 07:21:19;;;;;;;211.25;102.78;;;;;;;;;;5093636;28;20544;-77
2021/12/22 07:23:45;;;;;;;98.82;52.45;;;;;;;;;;5093749;28;20020;-77
2021/12/22 07:26:13;;;;;;;74.95;40.15;;;;;;;;;;5094055;28;20055;-78
2021/12/22 07:28:39;;;;;;;107.32;57.42;;;;;;;;;;5132171;27;20022;-77
2021/12/22 07:31:05;;;;;;;136.88;77.60;;;;;;;;;;5113908;27;20011;-77
2021/12/22 07:33:30;;;;;;;78.00;42.58;;;;;;;;;;5114297;27;20025;-77
2021/12/22 07:36:00;;;;;;;64.55;36.63;;;;;;;;;;5126818;27;20043;-77
2021/12/22 07:38:27;;;;;;;;;;;;;;;;;;5113403;28;20019;-76
2021/12/22 07:40:53;;;;;;;97.40;51.20;;;;;;;;;;5085057;28;19904;-75
2021/12/22 07:43:18;;;;;;;88.47;43.50;;;;;;;;;;5053587;28;20028;-76
2021/12/22 07:45:44;;;;;;;65.90;32.40;;;;;;;;;;5052625;28;20032;-76
2021/12/22 07:48:09;;;;;;;71.88;36.55;;;;;;;;;;5062226;28;20459;-75
2021/12/22 07:50:35;;;;;;;64.50;40.05;;;;;;;;;;5039536;28;20394;-75
2021/12/22 07:53:00;;;;;;;67.03;40.03;;;;;;;;;;5057690;28;20024;-77
2021/12/22 07:55:25;;;;;;;71.22;40.67;;;;;;;;;;5058520;28;20098;-76
2021/12/22 07:57:51;;;;;;;65.47;37.03;;;;;;;;;;5039763;28;20031;-76
2021/12/22 08:00:16;;;;;;;80.35;45.53;;;;;;;;;;5057082;28;20016;-76
2021/12/22 08:02:42;;;;;;;74.50;44.75;;;;;;;;;;5039682;28;20108;-78
2021/12/22 08:05:08;;;;;;;84.03;49.30;;;;;;;;;;5057385;28;20554;-78
2021/12/22 08:07:34;;;;;;;70.25;37.72;;;;;;;;;;5057506;28;20028;-76
2021/12/22 08:10:00;;;;;;;56.42;32.35;;;;;;;;;;5057055;28;20017;-77
2021/12/22 08:12:25;;;;;;;82.88;48.28;;;;;;;;;;5056987;28;20024;-77
2021/12/22 08:14:51;;;;;;;43.50;25.45;;;;;;;;;;5058038;28;20031;-76
2021/12/22 08:17:16;;;;;;;62.40;33.97;;;;;;;;;;5057750;28;20460;-76
2021/12/22 08:19:41;;;;;;;62.78;33.05;;;;;;;;;;5039072;28;20348;-77
2021/12/22 08:22:07;;;;;;;54.65;30.95;;;;;;;;;;5039299;28;20020;-78
2021/12/22 08:24:33;;;;;;;34.85;20.95;;;;;;;;;;5095018;28;20102;-78
2021/12/22 08:26:58;;;;;;;46.55;25.80;;;;;;;;;;5097517;28;20383;-77
2021/12/22 08:29:23;;;;;;;53.67;31.38;;;;;;;;;;5097488;28;20027;-77
2021/12/22 08:31:49;;;;;;;74.50;41.88;;;;;;;;;;5095443;28;20361;-78
2021/12/22 08:34:24;;;;;;;86.63;46.13;;;;;;;;;;5077431;28;20027;-76
2021/12/22 08:39:34;;;;;;;118.28;61.20;;;;;;;;;;5077219;28;20058;-75
2021/12/22 08:41:59;;;;;;;151.90;74.15;;;;;;;;;;5096909;28;20529;-76
2021/12/22 08:44:26;;;;;;;135.32;69.65;;;;;;;;;;5097333;28;20805;-77
2021/12/22 08:46:51;;;;;;;82.68;44.47;;;;;;;;;;5079204;28;20163;-79
2021/12/22 08:49:18;;;;;;;53.65;31.00;;;;;;;;;;5097265;28;20518;-77
2021/12/22 08:51:44;;;;;;;53.15;30.17;;;;;;;;;;5078740;28;20042;-77
2021/12/22 08:54:09;;;;;;;52.53;29.67;;;;;;;;;;5070169;28;20624;-77
2021/12/22 08:56:35;;;;;;;76.13;43.40;;;;;;;;;;5048904;28;20023;-78
2021/12/22 08:59:02;;;;;;;270.05;124.95;;;;;;;;;;5065012;28;20500;-77
2021/12/22 09:01:27;;;;;;;158.27;79.00;;;;;;;;;;5047325;28;20111;-78
2021/12/22 09:03:53;;;;;;;94.65;52.33;;;;;;;;;;5067304;28;20123;-78
2021/12/22 09:06:18;;;;;;;64.38;36.33;;;;;;;;;;5047667;28;20451;-77
2021/12/22 09:08:44;;;;;;;44.78;27.20;;;;;;;;;;5047407;28;20020;-78
2021/12/22 09:11:09;;;;;;;151.25;81.35;;;;;;;;;;5064596;28;20020;-76
2021/12/22 09:13:38;;;;;;;69.88;41.17;;;;;;;;;;5046316;28;20019;-75
2021/12/22 09:16:04;;;;;;;58.35;36.30;;;;;;;;;;5047699;28;20113;-76
2021/12/22 09:18:29;;;;;;;47.70;33.13;;;;;;;;;;5066626;28;20102;-76
2021/12/22 09:20:55;;;;;;;64.88;44.13;;;;;;;;;;5064540;28;20016;-74
2021/12/22 09:23:20;;;;;;;63.00;39.80;;;;;;;;;;5067303;28;20032;-77
2021/12/22 09:25:45;;;;;;;51.03;32.80;;;;;;;;;;5064490;28;20024;-76
2021/12/22 09:28:13;;;;;;;128.52;63.22;;;;;;;;;;5065494;28;20016;-77
2021/12/22 09:30:39;;;;;;;1118.60;468.77;;;;;;;;;;5048051;28;20530;-76
2021/12/22 09:33:11;;;;;;;514.35;184.18;;;;;;;;;;5064204;28;20044;-76
2021/12/22 09:35:36;;;;;;;591.35;250.90;;;;;;;;;;5059472;28;20132;-77
2021/12/22 09:38:02;;;;;;;207.48;85.43;;;;;;;;;;5096770;28;20043;-76
2021/12/22 09:40:27;;;;;;;183.95;81.72;;;;;;;;;;5096547;27;20027;-76
2021/12/22 09:42:52;;;;;;;253.25;109.53;;;;;;;;;;5096272;28;20020;-76
2021/12/22 09:45:19;;;;;;;125.07;60.63;;;;;;;;;;5096018;28;20044;-77
2021/12/22 09:48:04;;;;;;;452.00;212.13;;;;;;;;;;5097035;28;20061;-76
2021/12/22 09:50:47;;;;;;;239.77;111.30;;;;;;;;;;5094292;28;20024;-76
2021/12/22 09:53:13;;;;;;;535.92;255.40;;;;;;;;;;5094650;28;20043;-76
2021/12/22 09:55:39;;;;;;;735.60;339.85;;;;;;;;;;5092510;28;20043;-76
2021/12/22 09:58:04;;;;;;;1425.85;655.50;;;;;;;;;;5095764;28;20020;-76
2021/12/22 10:00:32;;;;;;;1014.08;512.65;;;;;;;;;;5095366;28;20023;-76
2021/12/22 10:02:58;;;;;;;1172.53;592.03;;;;;;;;;;5089749;27;20011;-75
2021/12/22 10:05:23;;;;;;;354.98;133.05;;;;;;;;;;5084606;28;20035;-76
2021/12/22 10:08:21;;;;;;;188.15;80.97;;;;;;;;;;5084985;28;20026;-75
2021/12/22 10:10:47;;;;;;;110.50;57.53;;;;;;;;;;5056227;28;20032;-76
2021/12/22 10:13:15;;;;;;;234.63;108.68;;;;;;;;;;5083341;28;20495;-76
2021/12/22 10:15:41;;;;;;;199.75;87.95;;;;;;;;;;5084780;28;20538;-76
2021/12/22 10:18:11;;;;;;;149.95;65.47;;;;;;;;;;5084305;28;20020;-76
2021/12/22 10:20:37;;;;;;;219.52;89.60;;;;;;;;;;5084433;28;20023;-76
2021/12/22 10:23:17;;;;;;;80.75;38.72;;;;;;;;;;5083590;28;20015;-76
2021/12/22 10:25:42;;;;;;;139.48;69.47;;;;;;;;;;5083581;28;20020;-76
2021/12/22 10:28:13;;;;;;;114.38;64.32;;;;;;;;;;5086739;28;20346;-76
2021/12/22 10:30:42;;;;;;;117.45;64.38;;;;;;;;;;5084072;28;20366;-76
2021/12/22 10:33:10;;;;;;;108.50;58.35;;;;;;;;;;5083672;28;20015;-75
2021/12/22 10:35:37;;;;;;;119.72;66.70;;;;;;;;;;5085211;28;20139;-74
2021/12/22 10:38:03;;;;;;;95.20;53.88;;;;;;;;;;5058130;28;20081;-75
2021/12/22 10:40:33;;;;;;;89.25;49.78;;;;;;;;;;5056259;28;20430;-75
2021/12/22 10:42:59;;;;;;;113.80;60.08;;;;;;;;;;5074793;28;20070;-75
2021/12/22 10:45:26;;;;;;;72.00;42.05;;;;;;;;;;5075727;28;20024;-74
2021/12/22 10:50:37;;;;;;;56.85;38.70;;;;;;;;;;5075065;28;20022;-73
2021/12/22 10:53:03;;;;;;;55.50;36.70;;;;;;;;;;5063059;28;20020;-73
2021/12/22 10:55:39;;;;;;;134.40;76.93;;;;;;;;;;5057499;28;20119;-74
2021/12/22 10:58:15;;;;;;;226.48;105.88;;;;;;;;;;5063450;28;20021;-74
2021/12/22 11:00:41;;;;;;;134.80;69.28;;;;;;;;;;5065496;28;20016;-74
2021/12/22 11:03:07;;;;;;;127.40;70.45;;;;;;;;;;5063151;28;20137;-73
2021/12/22 11:05:43;;;;;;;141.38;82.30;;;;;;;;;;5064693;28;20096;-73
2021/12/22 11:08:21;;;;;;;100.18;59.95;;;;;;;;;;5063228;28;20035;-73
2021/12/22 11:10:47;;;;;;;39.78;24.90;;;;;;;;;;5053991;28;20444;-73
2021/12/22 11:13:17;;;;;;;24.88;14.80;;;;;;;;;;5063809;28;20008;-74
2021/12/22 11:15:43;;;;;;;34.92;23.00;;;;;;;;;;5056222;28;20070;-74
2021/12/22 11:18:09;;;;;;;36.72;23.10;;;;;;;;;;5054679;28;20522;-73
2021/12/22 11:20:35;;;;;;;23.33;16.52;;;;;;;;;;5036474;28;20040;-73
2021/12/22 11:23:02;;;;;;;24.70;18.35;;;;;;;;;;5056610;28;20060;-73
2021/12/22 11:25:30;;;;;;;27.80;17.77;;;;;;;;;;5058084;28;20383;-74
2021/12/22 11:27:56;;;;;;;64.47;35.92;;;;;;;;;;5058211;28;20017;-73
2021/12/22 11:30:22;;;;;;;35.72;21.60;;;;;;;;;;5059313;28;20082;-72
2021/12/22 11:32:48;;;;;;;22.27;15.38;;;;;;;;;;5058672;28;20009;-74
2021/12/22 11:35:15;;;;;;;52.30;26.15;;;;;;;;;;5058344;28;20035;-73
2021/12/22 11:37:40;;;;;;;39.90;21.60;;;;;;;;;;5058936;28;20028;-74
2021/12/22 11:40:09;;;;;;;79.07;43.35;;;;;;;;;;5060355;28;20016;-74
2021/12/22 11:42:39;;;;;;;128.75;72.57;;;;;;;;;;5068822;28;20103;-75
2021/12/22 11:45:08;;;;;;;177.07;101.93;;;;;;;;;;5039230;28;20028;-72
2021/12/22 11:47:45;;;;;;;219.43;107.93;;;;;;;;;;5072597;28;20024;-75
2021/12/22 11:50:15;;;;;;;157.18;78.57;;;;;;;;;;5078946;28;20397;-74
2021/12/22 11:52:43;;;;;;;82.72;40.15;;;;;;;;;;5077995;28;20008;-74
2021/12/22 11:55:08;;;;;;;85.88;43.60;;;;;;;;;;5078502;28;20447;-74
2021/12/22 11:57:33;;;;;;;144.85;76.07;;;;;;;;;;5077544;28;20020;-74
2021/12/22 12:00:19;;;;;;;202.30;90.45;;;;;;;;;;5059488;28;20098;-74
2021/12/22 12:02:44;;;;;;;88.38;51.30;;;;;;;;;;5078423;28;20027;-75
2021/12/22 12:05:18;;;;;;;84.00;52.05;;;;;;;;;;5076828;28;20095;-74
2021/12/22 12:07:46;;;;;;;32.97;21.25;;;;;;;;;;5076342;28;20016;-74
2021/12/22 12:10:30;;;;;;;54.97;32.60;;;;;;;;;;5076882;28;20016;-75
2021/12/22 12:13:01;;;;;;;19.73;13.40;;;;;;;;;;5076782;28;20055;-74
2021/12/22 12:21:36;;;;;;;27.13;17.10;;;;;;;;;;5076746;28;20128;-74
2021/12/22 12:22:17;;;;;;;10.30;6.20;;;;;;;;;;5075297;28;20161;-74
2021/12/22 12:24:47;;;;;;;7.82;6.03;;;;;;;;;;5071036;28;20375;-75
2021/12/22 12:27:32;;;;;;;10.27;6.90;;;;;;;;;;5076314;28;20058;-73
2021/12/22 12:30:11;;;;;;;13.07;7.25;;;;;;;;;;5077273;28;20027;-74
2021/12/22 12:32:39;;;;;;;23.80;15.02;;;;;;;;;;5077450;28;20016;-74
2021/12/22 12:35:34;;;;;;;46.72;26.33;;;;;;;;;;5058697;28;20031;-74
2021/12/22 12:38:06;;;;;;;89.18;45.92;;;;;;;;;;5058925;28;20494;-75
2021/12/22 12:40:50;;;;;;;67.78;33.92;;;;;;;;;;5076859;28;20020;-74
2021/12/22 12:43:15;;;;;;;19.63;10.90;;;;;;;;;;5076843;28;20410;-74
2021/12/22 12:45:41;;;;;;;19.50;11.88;;;;;;;;;;5058842;28;20020;-74
2021/12/22 12:48:25;;;;;;;9.68;8.43;;;;;;;;;;5076915;28;20055;-74
2021/12/22 12:51:09;;;;;;;6.55;5.65;;;;;;;;;;5076933;28;20554;-74
2021/12/22 12:53:42;;;;;;;6.40;4.53;;;;;;;;;;5076381;28;20020;-74
2021/12/22 12:56:09;;;;;;;20.92;11.43;;;;;;;;;;5076617;28;20539;-74
2021/12/22 12:58:34;;;;;;;89.72;44.53;;;;;;;;;;5058570;28;20063;-74
2021/12/22 13:00:59;;;;;;;17.25;9.50;;;;;;;;;;5077587;28;20024;-75
2021/12/22 13:03:25;;;;;;;25.02;15.32;;;;;;;;;;5076475;28;20077;-74
2021/12/22 13:05:50;;;;;;;18.05;10.35;;;;;;;;;;5058436;28;20023;-73
2021/12/22 13:08:16;;;;;;;208.95;109.10;;;;;;;;;;5075909;28;20458;-73
2021/12/22 13:10:48;;;;;;;52.72;27.90;;;;;;;;;;5076513;28;20021;-73
2021/12/22 13:13:15;;;;;;;132.88;76.00;;;;;;;;;;5076378;28;20058;-74
2021/12/22 13:15:49;;;;;;;37.90;23.60;;;;;;;;;;5076474;28;20065;-74
2021/12/22 13:18:14;;;;;;;15.85;12.43;;;;;;;;;;5077132;28;20024;-73
2021/12/22 13:20:41;;;;;;;15.90;12.48;;;;;;;;;;5075805;28;20351;-75
2021/12/22 13:23:13;;;;;;;11.10;8.85;;;;;;;;;;5077040;28;20020;-74
2021/12/22 13:25:43;;;;;;;22.63;15.98;;;;;;;;;;5058035;28;20477;-74
2021/12/22 13:28:10;;;;;;;131.18;71.88;;;;;;;;;;5077026;28;20520;-74
2021/12/22 13:30:55;;;;;;;47.90;26.33;;;;;;;;;;5076192;28;20352;-73
2021/12/22 13:33:22;;;;;;;24.70;17.30;;;;;;;;;;5076143;28;20458;-73
2021/12/22 13:35:49;;;;;;;38.50;24.70;;;;;;;;;;5074891;28;20435;-74
2021/12/22 13:38:18;;;;;;;20.08;13.80;;;;;;;;;;5057629;28;20031;-74
2021/12/22 13:40:46;;;;;;;44.65;25.65;;;;;;;;;;5076179;28;20516;-73
2021/12/22 13:43:19;;;;;;;33.13;18.95;;;;;;;;;;5075692;28;20456;-73
2021/12/22 13:45:44;;;;;;;30.60;16.88;;;;;;;;;;5075822;28;20027;-74
2021/12/22 13:48:22;;;;;;;84.75;35.33;;;;;;;;;;5075761;28;20073;-75
2021/12/22 13:50:48;;;;;;;153.88;65.00;;;;;;;;;;5075868;28;20077;-74
2021/12/22 13:53:15;;;;;;;43.17;21.42;;;;;;;;;;5075755;28;20154;-74
2021/12/22 13:55:41;;;;;;;51.40;28.35;;;;;;;;;;5075562;28;20032;-72
2021/12/22 13:58:24;;;;;;;30.05;19.30;;;;;;;;;;5075764;28;20434;-73
2021/12/22 14:00:50;;;;;;;11.32;6.60;;;;;;;;;;5076622;28;20066;-73
2021/12/22 14:03:16;;;;;;;14.00;9.10;;;;;;;;;;5074464;28;20054;-73
2021/12/22 14:05:41;;;;;;;15.85;8.52;;;;;;;;;;5073755;28;20016;-74
2021/12/22 14:08:22;;;;;;;18.00;9.30;;;;;;;;;;5074891;28;20031;-73
2021/12/22 14:10:47;;;;;;;29.38;17.10;;;;;;;;;;5075689;28;20016;-73
2021/12/22 14:13:25;;;;;;;70.40;36.60;;;;;;;;;;5075690;28;20028;-73
2021/12/22 14:15:50;;;;;;;31.58;15.60;;;;;;;;;;5057159;28;20374;-73
2021/12/22 14:18:16;;;;;;;81.63;38.22;;;;;;;;;;5067250;28;20008;-74
2021/12/22 14:20:41;;;;;;;68.75;32.13;;;;;;;;;;5074168;28;20099;-74
2021/12/22 14:23:07;;;;;;;72.47;37.45;;;;;;;;;;5057406;28;20461;-74
2021/12/22 14:25:35;;;;;;;28.10;15.07;;;;;;;;;;5041242;28;20024;-75
2021/12/22 14:28:12;;;;;;;28.55;15.45;;;;;;;;;;5036402;28;20020;-73
2021/12/22 14:30:38;;;;;;;30.98;20.08;;;;;;;;;;5054384;28;20466;-74
2021/12/22 14:33:14;;;;;;;44.50;26.25;;;;;;;;;;5064767;28;20024;-74
2021/12/22 14:35:41;;;;;;;38.08;21.52;;;;;;;;;;5075721;28;20047;-72
2021/12/22 14:38:08;;;;;;;28.85;17.17;;;;;;;;;;5075124;28;20027;-72
2021/12/22 14:40:35;;;;;;;35.42;22.45;;;;;;;;;;5076245;28;20012;-73